createdAt,value
2018-07-25T00:00:19.683Z,97526.89
2018-07-25T00:02:48.552Z,97527.80
2018-07-25T00:05:17.257Z,97523.98
2018-07-25T00:07:45.946Z,97522.31
2018-07-25T00:10:14.579Z,97525.67
2018-07-25T00:12:43.281Z,97526.21
2018-07-25T00:15:11.913Z,97530.95
2018-07-25T00:17:40.586Z,97532.95
2018-07-25T00:20:09.402Z,97525.84
2018-07-25T00:22:38.140Z,97524.32
2018-07-25T00:25:06.850Z,97525.13
2018-07-25T00:27:36.163Z,97525.37
2018-07-25T00:30:05.409Z,97523.94
2018-07-25T00:32:34.370Z,97520.56
2018-07-25T00:35:03.031Z,97518.83
2018-07-25T00:37:31.645Z,97511.98
2018-07-25T00:40:00.705Z,97521.21
2018-07-25T00:42:29.364Z,97525.11
2018-07-25T00:44:58.085Z,97526.17
2018-07-25T00:47:27.139Z,97521.09
2018-07-25T00:49:56.083Z,97523.28
2018-07-25T00:52:25.640Z,97523.13
2018-07-25T00:54:54.280Z,97521.77
2018-07-25T00:57:23.911Z,97521.00
2018-07-25T00:59:52.544Z,97521.48
2018-07-25T01:02:21.267Z,97524.88
2018-07-25T01:04:50.840Z,97529.27
2018-07-25T01:07:19.522Z,97527.17
2018-07-25T01:09:48.530Z,97521.36
2018-07-25T01:12:17.243Z,97525.16
2018-07-25T01:14:45.857Z,97522.00
2018-07-25T01:17:14.469Z,97522.88
2018-07-25T01:19:43.336Z,97519.05
2018-07-25T01:22:12.265Z,97526.89
2018-07-25T01:24:40.959Z,97524.73
2018-07-25T01:27:09.639Z,97526.47
2018-07-25T01:29:39.313Z,97521.55
2018-07-25T01:32:08.562Z,97531.56
2018-07-25T01:34:38.195Z,97525.51
2018-07-25T01:37:07.150Z,97526.17
2018-07-25T01:39:36.427Z,97520.02
2018-07-25T01:42:05.016Z,97522.58
2018-07-25T01:44:33.648Z,97526.78
2018-07-25T01:47:02.297Z,97526.72
2018-07-25T01:49:31.020Z,97532.41
2018-07-25T01:52:00.008Z,97528.73
2018-07-25T01:54:28.751Z,97532.70
2018-07-25T01:56:57.328Z,97538.45
2018-07-25T01:59:28.298Z,97534.28
2018-07-25T02:01:58.583Z,97529.92
2018-07-25T02:04:27.739Z,97535.97
2018-07-25T02:06:56.365Z,97535.83
2018-07-25T02:09:25.083Z,97535.87
2018-07-25T02:11:54.533Z,97535.03
2018-07-25T02:14:23.630Z,97538.98
2018-07-25T02:16:52.242Z,97539.06
2018-07-25T02:19:21.023Z,97539.34
2018-07-25T02:21:49.625Z,97536.06
2018-07-25T02:24:18.270Z,97538.48
2018-07-25T02:26:47.389Z,97539.30
2018-07-25T02:29:16.053Z,97532.76
2018-07-25T02:31:44.648Z,97543.39
2018-07-25T02:34:18.416Z,97535.69
2018-07-25T02:36:47.035Z,97538.64
2018-07-25T02:39:15.757Z,97539.00
2018-07-25T02:41:45.160Z,97538.20
2018-07-25T02:44:14.130Z,97544.19
2018-07-25T02:46:42.727Z,97544.81
2018-07-25T02:49:11.556Z,97545.20
2018-07-25T02:51:40.162Z,97549.87
2018-07-25T02:54:09.319Z,97552.08
2018-07-25T02:56:37.916Z,97555.47
2018-07-25T02:59:06.762Z,97552.22
2018-07-25T03:01:35.385Z,97552.88
2018-07-25T03:04:04.056Z,97550.42
2018-07-25T03:06:32.702Z,97557.96
2018-07-25T03:09:01.492Z,97558.89
2018-07-25T03:11:30.149Z,97558.48
2018-07-25T03:13:58.770Z,97563.78
2018-07-25T03:16:27.640Z,97565.72
2018-07-25T03:18:56.211Z,97571.05
2018-07-25T03:21:24.854Z,97572.08
2018-07-25T03:23:53.567Z,97579.95
2018-07-25T03:26:22.185Z,97584.51
2018-07-25T03:28:51.502Z,97577.83
2018-07-25T03:31:20.304Z,97582.98
2018-07-25T03:33:48.819Z,97584.87
2018-07-25T03:36:17.426Z,97589.72
2018-07-25T03:38:46.718Z,97583.94
2018-07-25T03:41:15.365Z,97593.55
2018-07-25T03:43:44.752Z,97590.66
2018-07-25T03:46:13.409Z,97591.64
2018-07-25T03:48:42.110Z,97597.69
2018-07-25T03:51:10.740Z,97600.42
2018-07-25T03:53:39.373Z,97601.11
2018-07-25T03:56:08.008Z,97602.47
2018-07-25T03:58:36.635Z,97609.11
2018-07-25T04:01:05.294Z,97602.72
2018-07-25T04:03:33.862Z,97607.46
2018-07-25T04:06:03.241Z,97610.06
2018-07-25T04:08:31.841Z,97608.23
2018-07-25T04:11:00.502Z,97612.61
2018-07-25T04:13:29.861Z,97611.83
2018-07-25T04:15:58.541Z,97612.52
2018-07-25T04:18:27.241Z,97620.17
2018-07-25T04:20:55.845Z,97620.12
2018-07-25T04:23:24.601Z,97618.64
2018-07-25T04:25:53.283Z,97621.07
2018-07-25T04:28:21.856Z,97620.12
2018-07-25T04:30:50.527Z,97624.20
2018-07-25T04:33:21.542Z,97617.16
2018-07-25T04:35:50.227Z,97620.33
2018-07-25T04:38:18.810Z,97618.52
2018-07-25T04:40:47.540Z,97619.93
2018-07-25T04:43:16.164Z,97624.56
2018-07-25T04:45:44.784Z,97623.37
2018-07-25T04:48:13.367Z,97627.11
2018-07-25T04:50:41.981Z,97629.45
2018-07-25T04:53:11.347Z,97631.14
2018-07-25T04:55:39.980Z,97632.95
2018-07-25T04:58:08.656Z,97640.16
2018-07-25T05:00:37.275Z,97631.36
2018-07-25T05:03:05.914Z,97634.44
2018-07-25T05:05:35.313Z,97633.67
2018-07-25T05:08:03.984Z,97639.02
2018-07-25T05:10:32.589Z,97639.18
2018-07-25T05:13:01.341Z,97639.24
2018-07-25T05:15:30.282Z,97638.87
2018-07-25T05:17:58.974Z,97637.12
2018-07-25T05:20:28.254Z,97640.56
2018-07-25T05:22:57.200Z,97643.34
2018-07-25T05:25:25.815Z,97642.38
2018-07-25T05:27:54.433Z,97648.23
2018-07-25T05:30:23.047Z,97642.86
2018-07-25T05:32:52.569Z,97650.97
2018-07-25T05:35:21.226Z,97648.10
2018-07-25T05:37:49.866Z,97651.32
2018-07-25T05:40:18.636Z,97650.12
2018-07-25T05:42:47.484Z,97649.61
2018-07-25T05:45:16.816Z,97653.16
2018-07-25T05:47:45.516Z,97656.90
2018-07-25T05:50:14.165Z,97656.98
2018-07-25T05:52:43.467Z,97653.55
2018-07-25T05:55:12.028Z,97649.30
2018-07-25T05:57:40.658Z,97645.56
2018-07-25T06:00:09.388Z,97651.44
2018-07-25T06:02:38.072Z,97654.22
2018-07-25T06:05:06.732Z,97654.95
2018-07-25T06:07:35.463Z,97660.56
2018-07-25T06:10:04.546Z,97654.83
2018-07-25T06:12:33.159Z,97654.85
2018-07-25T06:15:01.794Z,97653.59
2018-07-25T06:17:30.414Z,97651.45
2018-07-25T06:19:59.032Z,97656.17
2018-07-25T06:22:27.617Z,97655.69
2018-07-25T06:24:56.396Z,97660.08
2018-07-25T06:27:25.135Z,97660.44
2018-07-25T06:29:53.746Z,97659.48
2018-07-25T06:32:22.631Z,97661.30
2018-07-25T06:34:51.363Z,97658.72
2018-07-25T06:37:20.135Z,97660.90
2018-07-25T06:39:48.824Z,97659.81
2018-07-25T06:42:17.520Z,97665.45
2018-07-25T06:44:46.128Z,97665.56
2018-07-25T06:47:14.825Z,97670.55
2018-07-25T06:49:43.623Z,97677.31
2018-07-25T06:52:12.292Z,97672.55
2018-07-25T06:54:40.985Z,97677.72
2018-07-25T06:57:10.289Z,97674.22
2018-07-25T06:59:38.875Z,97674.56
2018-07-25T07:02:07.628Z,97674.03
2018-07-25T07:04:36.570Z,97674.28
2018-07-25T07:07:05.386Z,97678.06
2018-07-25T07:09:34.010Z,97680.09
2018-07-25T07:12:03.327Z,97680.27
2018-07-25T07:14:31.940Z,97673.91
2018-07-25T07:17:00.564Z,97678.34
2018-07-25T07:19:29.206Z,97683.72
2018-07-25T07:21:58.713Z,97683.58
2018-07-25T07:24:27.370Z,97678.29
2018-07-25T07:26:56.054Z,97672.25
2018-07-25T07:29:24.732Z,97677.09
2018-07-25T07:31:53.534Z,97678.73
2018-07-25T07:34:22.218Z,97678.50
2018-07-25T07:36:51.085Z,97675.02
2018-07-25T07:39:19.737Z,97672.95
2018-07-25T07:41:48.438Z,97669.89
2018-07-25T07:44:17.962Z,97670.98
2018-07-25T07:46:46.590Z,97677.50
2018-07-25T07:49:15.340Z,97675.97
2018-07-25T07:51:43.952Z,97679.11
2018-07-25T07:54:12.752Z,97673.42
2018-07-25T07:56:41.398Z,97681.48
2018-07-25T07:59:10.666Z,97674.99
2018-07-25T08:01:39.838Z,97673.84
2018-07-25T08:04:09.110Z,97666.80
2018-07-25T08:06:37.745Z,97667.39
2018-07-25T08:09:09.277Z,97667.77
2018-07-25T08:11:37.877Z,97667.78
2018-07-25T08:14:06.611Z,97671.89
2018-07-25T08:16:35.245Z,97668.34
2018-07-25T08:19:03.997Z,97668.14
2018-07-25T08:21:32.821Z,97668.48
2018-07-25T08:24:01.485Z,97672.05
2018-07-25T08:26:30.141Z,97670.65
2018-07-25T08:28:58.731Z,97669.86
2018-07-25T08:31:28.217Z,97666.26
2018-07-25T08:33:56.851Z,97670.56
2018-07-25T08:36:25.498Z,97667.79
2018-07-25T08:38:54.082Z,97668.33
2018-07-25T08:41:22.878Z,97661.33
2018-07-25T08:43:51.440Z,97665.39
2018-07-25T08:46:20.122Z,97664.76
2018-07-25T08:48:49.724Z,97664.75
2018-07-25T08:51:18.529Z,97668.83
2018-07-25T08:53:47.229Z,97663.59
2018-07-25T08:56:16.751Z,97664.91
2018-07-25T08:58:45.390Z,97667.20
2018-07-25T09:01:14.040Z,97665.55
2018-07-25T09:03:42.666Z,97669.63
2018-07-25T09:06:11.331Z,97666.20
2018-07-25T09:08:39.947Z,97667.41
2018-07-25T09:11:08.759Z,97666.02
2018-07-25T09:13:37.559Z,97666.91
2018-07-25T09:16:06.193Z,97665.66
2018-07-25T09:18:35.539Z,97663.39
2018-07-25T09:21:04.259Z,97662.33
2018-07-25T09:23:32.900Z,97663.73
2018-07-25T09:26:01.614Z,97670.96
2018-07-25T09:28:30.227Z,97666.14
2018-07-25T09:30:58.862Z,97661.05
2018-07-25T09:33:27.650Z,97666.10
2018-07-25T09:35:58.099Z,97660.49
2018-07-25T09:38:26.820Z,97664.80
2018-07-25T09:40:55.511Z,97659.89
2018-07-25T09:43:24.221Z,97657.19
2018-07-25T09:45:52.905Z,97653.45
2018-07-25T09:48:21.625Z,97654.75
2018-07-25T09:50:50.305Z,97652.20
2018-07-25T09:53:18.984Z,97651.48
2018-07-25T09:55:48.002Z,97649.82
2018-07-25T09:58:16.924Z,97646.67
2018-07-25T10:00:47.554Z,97651.16
2018-07-25T10:03:17.194Z,97647.56
2018-07-25T10:05:46.096Z,97633.09
2018-07-25T10:08:15.285Z,97641.39
2018-07-25T10:10:44.579Z,97635.41
2018-07-25T10:13:13.320Z,97637.80
2018-07-25T10:15:41.954Z,97636.91
2018-07-25T10:18:10.915Z,97637.76
2018-07-25T10:20:39.645Z,97632.60
2018-07-25T10:23:08.539Z,97626.93
2018-07-25T10:25:37.166Z,97626.69
2018-07-25T10:28:06.240Z,97615.39
2018-07-25T10:30:34.912Z,97616.13
2018-07-25T10:33:03.748Z,97622.04
2018-07-25T10:35:32.271Z,97623.61
2018-07-25T10:38:00.934Z,97621.75
2018-07-25T10:40:29.544Z,97622.22
2018-07-25T10:42:58.845Z,97613.10
2018-07-25T10:45:27.560Z,97615.22
2018-07-25T10:47:56.261Z,97616.84
2018-07-25T10:50:25.628Z,97612.27
2018-07-25T10:52:54.301Z,97616.98
2018-07-25T10:55:22.883Z,97609.86
2018-07-25T10:57:51.535Z,97605.36
2018-07-25T11:00:21.076Z,97606.66
2018-07-25T11:02:49.695Z,97599.20
2018-07-25T11:05:18.484Z,97593.23
2018-07-25T11:07:47.442Z,97594.97
2018-07-25T11:10:16.181Z,97591.33
2018-07-25T11:12:44.810Z,97587.02
2018-07-25T11:15:13.571Z,97589.11
2018-07-25T11:17:42.345Z,97579.20
2018-07-25T11:20:11.293Z,97582.66
2018-07-25T11:22:39.961Z,97585.44
2018-07-25T11:25:08.667Z,97581.53
2018-07-25T11:27:38.180Z,97576.23
2018-07-25T11:30:06.973Z,97572.67
2018-07-25T11:32:35.737Z,97578.22
2018-07-25T11:35:04.316Z,97566.12
2018-07-25T11:37:33.197Z,97567.87
2018-07-25T11:40:01.827Z,97568.09
2018-07-25T11:42:30.529Z,97558.78
2018-07-25T11:45:05.943Z,97563.48
2018-07-25T11:47:34.556Z,97566.21
2018-07-25T11:50:03.256Z,97564.33
2018-07-25T11:52:31.894Z,97558.42
2018-07-25T11:55:00.972Z,97563.39
2018-07-25T11:57:29.619Z,97557.42
2018-07-25T11:59:58.253Z,97560.30
2018-07-25T12:02:26.867Z,97552.77
2018-07-25T12:04:55.499Z,97560.98
2018-07-25T12:07:24.132Z,97556.45
2018-07-25T12:09:52.945Z,97560.05
2018-07-25T12:12:21.538Z,97554.97
2018-07-25T12:14:50.189Z,97548.39
2018-07-25T12:17:19.094Z,97556.23
2018-07-25T12:19:47.739Z,97557.09
2018-07-25T12:22:16.445Z,97550.06
2018-07-25T12:24:45.091Z,97548.78
2018-07-25T12:27:13.745Z,97544.83
2018-07-25T12:29:43.124Z,97546.44
2018-07-25T12:32:12.593Z,97547.20
2018-07-25T12:34:41.270Z,97541.77
2018-07-25T12:37:10.540Z,97546.42
2018-07-25T12:39:40.319Z,97543.97
2018-07-25T12:42:09.800Z,97540.13
2018-07-25T12:44:38.416Z,97537.98
2018-07-25T12:47:07.139Z,97540.34
2018-07-25T12:49:36.120Z,97537.56
2018-07-25T12:52:04.765Z,97533.67
2018-07-25T12:54:33.427Z,97527.19
2018-07-25T12:57:02.036Z,97534.89
2018-07-25T12:59:30.733Z,97524.20
2018-07-25T13:01:59.494Z,97521.41
2018-07-25T13:04:28.798Z,97524.62
2018-07-25T13:06:57.557Z,97519.38
2018-07-25T13:09:26.317Z,97517.50
2018-07-25T13:11:54.939Z,97514.36
2018-07-25T13:14:23.578Z,97522.69
2018-07-25T13:16:52.431Z,97514.00
2018-07-25T13:19:21.034Z,97517.16
2018-07-25T13:21:49.827Z,97509.33
2018-07-25T13:24:18.514Z,97512.17
2018-07-25T13:26:47.616Z,97512.05
2018-07-25T13:29:16.313Z,97507.81
2018-07-25T13:31:44.999Z,97504.48
2018-07-25T13:34:13.699Z,97505.33
2018-07-25T13:36:43.285Z,97503.70
2018-07-25T13:39:11.895Z,97500.25
2018-07-25T13:41:40.728Z,97495.78
2018-07-25T13:44:09.406Z,97497.40
2018-07-25T13:46:38.067Z,97491.80
2018-07-25T13:49:06.971Z,97491.39
2018-07-25T13:51:35.822Z,97492.42
2018-07-25T13:54:04.562Z,97485.21
2018-07-25T13:56:33.270Z,97482.07
2018-07-25T13:59:01.942Z,97478.70
2018-07-25T14:01:30.621Z,97478.86
2018-07-25T14:03:59.975Z,97477.38
2018-07-25T14:06:28.652Z,97478.32
2018-07-25T14:08:57.318Z,97474.12
2018-07-25T14:11:26.711Z,97475.52
2018-07-25T14:13:55.317Z,97465.03
2018-07-25T14:16:23.983Z,97470.13
2018-07-25T14:18:52.712Z,97465.68
2018-07-25T14:21:22.169Z,97465.44
2018-07-25T14:23:50.928Z,97472.94
2018-07-25T14:26:19.435Z,97472.77
2018-07-25T14:28:48.851Z,97470.85
2018-07-25T14:31:17.495Z,97474.28
2018-07-25T14:33:46.380Z,97464.41
2018-07-25T14:36:15.241Z,97469.71
2018-07-25T14:38:43.920Z,97473.34
2018-07-25T14:41:12.633Z,97468.20
2018-07-25T14:43:41.319Z,97474.89
2018-07-25T14:46:10.697Z,97480.79
2018-07-25T14:48:39.484Z,97462.86
2018-07-25T14:51:08.174Z,97476.22
2018-07-25T14:53:36.759Z,97476.66
2018-07-25T14:56:05.739Z,97472.32
2018-07-25T14:58:34.416Z,97474.12
2018-07-25T15:01:03.010Z,97468.05
2018-07-25T15:03:31.682Z,97471.03
2018-07-25T15:06:00.309Z,97478.13
2018-07-25T15:08:28.982Z,97469.13
2018-07-25T15:10:58.374Z,97466.27
2018-07-25T15:13:27.028Z,97473.33
2018-07-25T15:15:55.732Z,97463.34
2018-07-25T15:18:24.376Z,97468.15
2018-07-25T15:20:53.066Z,97467.73
2018-07-25T15:23:32.936Z,97467.85
2018-07-25T15:26:01.609Z,97459.03
2018-07-25T15:28:30.234Z,97454.31
2018-07-25T15:30:58.916Z,97459.48
2018-07-25T15:33:27.833Z,97452.31
2018-07-25T15:35:56.549Z,97463.75
2018-07-25T15:38:25.199Z,97458.67
2018-07-25T15:40:53.868Z,97460.02
2018-07-25T15:43:23.245Z,97456.98
2018-07-25T15:45:52.887Z,97456.60
2018-07-25T15:48:22.891Z,97461.14
2018-07-25T15:50:51.774Z,97453.58
2018-07-25T15:53:21.419Z,97450.34
2018-07-25T15:55:51.498Z,97450.70
2018-07-25T15:58:21.274Z,97452.61
2018-07-25T16:00:50.361Z,97449.76
2018-07-25T16:03:19.024Z,97449.77
2018-07-25T16:05:47.706Z,97444.34
2018-07-25T16:08:16.399Z,97448.92
2018-07-25T16:10:45.261Z,97444.48
2018-07-25T16:13:15.313Z,97441.24
2018-07-25T16:15:45.188Z,97444.67
2018-07-25T16:18:13.991Z,97442.05
2018-07-25T16:20:42.774Z,97434.81
2018-07-25T16:23:11.590Z,97432.00
2018-07-25T16:25:40.478Z,97435.80
2018-07-25T16:28:11.366Z,97432.00
2018-07-25T16:30:40.114Z,97426.66
2018-07-25T16:33:09.185Z,97429.77
2018-07-25T16:35:38.813Z,97429.05
2018-07-25T16:38:08.389Z,97426.02
2018-07-25T16:40:38.467Z,97425.59
2018-07-25T16:43:07.980Z,97427.64
2018-07-25T16:45:37.253Z,97422.91
2018-07-25T16:48:06.203Z,97420.30
2018-07-25T16:50:35.062Z,97432.37
2018-07-25T16:53:04.208Z,97438.07
2018-07-25T16:55:34.923Z,97444.33
2018-07-25T16:58:03.601Z,97463.30
2018-07-25T17:00:33.302Z,97457.36
2018-07-25T17:03:06.206Z,97454.73
2018-07-25T17:05:35.553Z,97450.03
2018-07-25T17:08:05.830Z,97451.32
2018-07-25T17:10:35.458Z,97456.91
2018-07-25T17:13:04.845Z,97459.00
2018-07-25T17:15:34.451Z,97457.66
2018-07-25T17:18:04.379Z,97453.48
2018-07-25T17:20:33.415Z,97447.74
2018-07-25T17:23:02.098Z,97452.44
2018-07-25T17:25:30.827Z,97452.36
2018-07-25T17:27:59.614Z,97443.06
2018-07-25T17:30:28.300Z,97449.43
2018-07-25T17:32:56.996Z,97455.60
2018-07-25T17:35:25.731Z,97454.73
2018-07-25T17:37:54.555Z,97452.73
2018-07-25T17:40:23.245Z,97461.86
2018-07-25T17:42:51.955Z,97453.43
2018-07-25T17:45:21.146Z,97451.61
2018-07-25T17:47:50.763Z,97452.56
2018-07-25T17:50:19.549Z,97465.18
2018-07-25T17:52:48.451Z,97470.37
2018-07-25T17:55:18.246Z,97477.15
2018-07-25T17:57:47.019Z,97485.52
2018-07-25T18:00:16.102Z,97479.25
2018-07-25T18:02:45.657Z,97478.64
2018-07-25T18:05:15.365Z,97484.95
2018-07-25T18:07:44.256Z,97484.59
2018-07-25T18:10:13.624Z,97478.28
2018-07-25T18:12:42.713Z,97478.78
2018-07-25T18:15:11.593Z,97479.85
2018-07-25T18:17:40.384Z,97474.86
2018-07-25T18:20:09.272Z,97484.58
2018-07-25T18:22:38.378Z,97481.06
2018-07-25T18:25:08.232Z,97479.33
2018-07-25T18:27:37.228Z,97482.95
2018-07-25T18:30:06.993Z,97485.73
2018-07-25T18:32:36.615Z,97491.16
2018-07-25T18:35:06.373Z,97489.09
2018-07-25T18:37:35.839Z,97489.95
2018-07-25T18:40:05.580Z,97483.28
2018-07-25T18:42:35.936Z,97483.53
2018-07-25T18:45:08.274Z,97489.86
2018-07-25T18:47:38.296Z,97497.41
2018-07-25T18:50:08.951Z,97494.66
2018-07-25T18:52:38.538Z,97493.80
2018-07-25T18:55:08.553Z,97495.61
2018-07-25T18:57:38.132Z,97498.39
2018-07-25T19:00:07.507Z,97503.77
2018-07-25T19:02:37.469Z,97501.75
2018-07-25T19:05:06.231Z,97501.98
2018-07-25T19:07:36.341Z,97507.24
2018-07-25T19:10:07.169Z,97510.21
2018-07-25T19:12:35.994Z,97509.27
2018-07-25T19:15:11.140Z,97514.33
2018-07-25T19:17:41.117Z,97513.30
2018-07-25T19:20:12.250Z,97510.24
2018-07-25T19:22:42.235Z,97516.80
2018-07-25T19:25:11.720Z,97516.37
2018-07-25T19:27:41.226Z,97513.38
2018-07-25T19:30:11.639Z,97515.70
2018-07-25T19:32:40.976Z,97516.75
2018-07-25T19:35:10.646Z,97533.25
2018-07-25T19:37:39.817Z,97536.14
2018-07-25T19:40:09.611Z,97544.17
2018-07-25T19:42:39.093Z,97535.47
2018-07-25T19:45:08.619Z,97529.33
2018-07-25T19:47:38.060Z,97536.17
2018-07-25T19:50:08.629Z,97534.13
2018-07-25T19:52:37.650Z,97537.20
2018-07-25T19:55:07.321Z,97538.47
2018-07-25T19:57:36.517Z,97540.11
2018-07-25T20:00:06.284Z,97537.94
2018-07-25T20:02:35.917Z,97534.24
2018-07-25T20:05:04.965Z,97531.84
2018-07-25T20:07:34.345Z,97529.27
2018-07-25T20:10:03.340Z,97534.80
2018-07-25T20:12:32.108Z,97529.94
2018-07-25T20:15:06.335Z,97515.09
2018-07-25T20:17:35.412Z,97546.47
2018-07-25T20:20:05.472Z,97544.18
2018-07-25T20:24:34.614Z,97554.87
2018-07-25T20:27:03.395Z,97553.41
2018-07-25T20:29:32.191Z,97554.69
2018-07-25T20:32:01.154Z,97553.06
2018-07-25T20:34:30.279Z,97559.23
2018-07-25T20:36:59.759Z,97560.23
2018-07-25T20:39:29.208Z,97561.63
2018-07-25T20:41:58.702Z,97561.16
2018-07-25T20:44:27.345Z,97566.38
2018-07-25T20:46:56.019Z,97566.23
2018-07-25T20:49:25.505Z,97568.23
2018-07-25T20:51:55.159Z,97565.88
2018-07-25T20:54:24.255Z,97564.28
2018-07-25T20:56:53.237Z,97574.36
2018-07-25T20:59:22.434Z,97571.02
2018-07-25T21:01:51.764Z,97570.63
2018-07-25T21:04:20.881Z,97572.00
2018-07-25T21:06:49.874Z,97571.59
2018-07-25T21:09:18.690Z,97575.09
2018-07-25T21:11:50.341Z,97578.30
2018-07-25T21:14:19.702Z,97581.28
2018-07-25T21:16:48.380Z,97586.39
2018-07-25T21:19:17.733Z,97590.52
2018-07-25T21:21:47.548Z,97591.58
2018-07-25T21:24:16.183Z,97588.17
2018-07-25T21:26:45.541Z,97589.94
2018-07-25T21:29:15.682Z,97589.53
2018-07-25T21:31:44.543Z,97585.00
2018-07-25T21:34:13.217Z,97592.77
2018-07-25T21:36:42.210Z,97584.31
2018-07-25T21:39:12.828Z,97587.73
2018-07-25T21:41:41.718Z,97586.98
2018-07-25T21:44:10.406Z,97584.41
2018-07-25T21:46:39.471Z,97591.14
2018-07-25T21:49:08.323Z,97587.01
2018-07-25T21:51:36.972Z,97593.31
2018-07-25T21:54:06.159Z,97594.10
2018-07-25T21:56:35.138Z,97591.34
2018-07-25T21:59:03.848Z,97595.48
2018-07-25T22:01:32.732Z,97594.30
2018-07-25T22:04:01.404Z,97590.16
2018-07-25T22:06:30.125Z,97588.62
2018-07-25T22:08:58.904Z,97591.41
2018-07-25T22:11:27.497Z,97585.48
2018-07-25T22:13:57.080Z,97580.20
2018-07-25T22:16:27.584Z,97578.03
2018-07-25T22:18:56.305Z,97575.64
2018-07-25T22:21:24.919Z,97580.55
2018-07-25T22:23:53.683Z,97583.91
2018-07-25T22:26:22.354Z,97580.34
2018-07-25T22:28:51.119Z,97584.69
2018-07-25T22:31:19.784Z,97583.89
2018-07-25T22:33:48.453Z,97580.94
2018-07-25T22:36:17.875Z,97582.30
2018-07-25T22:38:46.530Z,97578.94
2018-07-25T22:41:15.196Z,97577.77
2018-07-25T22:43:43.806Z,97585.36
2018-07-25T22:46:12.498Z,97583.78
2018-07-25T22:48:41.537Z,97593.78
2018-07-25T22:51:10.371Z,97593.37
2018-07-25T22:53:40.096Z,97600.06
2018-07-25T22:56:08.757Z,97598.64
2018-07-25T22:58:37.396Z,97596.41
2018-07-25T23:01:06.165Z,97599.14
2018-07-25T23:03:34.871Z,97596.30
2018-07-25T23:06:03.496Z,97596.50
2018-07-25T23:08:32.285Z,97597.04
2018-07-25T23:11:04.569Z,97599.56
2018-07-25T23:13:33.273Z,97607.78
2018-07-25T23:16:01.908Z,97605.77
2018-07-25T23:18:30.537Z,97605.73
2018-07-25T23:20:59.311Z,97600.00
2018-07-25T23:23:27.912Z,97605.06
2018-07-25T23:25:57.326Z,97608.01
2018-07-25T23:28:26.279Z,97600.49
2018-07-25T23:30:55.577Z,97597.30
2018-07-25T23:33:24.217Z,97599.70
2018-07-25T23:35:52.906Z,97598.77
2018-07-25T23:38:22.293Z,97606.22
2018-07-25T23:40:50.898Z,97596.16
2018-07-25T23:43:19.542Z,97590.57
2018-07-25T23:45:48.911Z,97589.88
2018-07-25T23:48:17.657Z,97588.75
2018-07-25T23:50:46.658Z,97579.92
2018-07-25T23:53:16.147Z,97587.62
2018-07-25T23:55:44.843Z,97579.17
2018-07-25T23:58:13.443Z,97581.64
